createdAt,value
2018-12-21T00:00:28.048Z,26.70
2018-12-21T00:01:06.805Z,26.70
2018-12-21T00:01:45.401Z,26.70
2018-12-21T00:02:23.948Z,26.70
2018-12-21T00:03:02.329Z,26.80
2018-12-21T00:03:40.656Z,26.80
2018-12-21T00:04:19.939Z,26.80
2018-12-21T00:04:58.506Z,26.80
2018-12-21T00:05:37.088Z,26.80
2018-12-21T00:06:17.896Z,26.80
2018-12-21T00:06:56.212Z,26.80
2018-12-21T00:07:34.197Z,26.80
2018-12-21T00:08:12.386Z,26.90
2018-12-21T00:08:50.311Z,26.90
2018-12-21T00:09:28.272Z,26.90
2018-12-21T00:10:06.436Z,26.90
2018-12-21T00:10:46.101Z,27.00
2018-12-21T00:11:24.552Z,27.00
2018-12-21T00:12:04.078Z,27.00
2018-12-21T00:12:42.021Z,27.00
2018-12-21T00:13:19.947Z,27.00
2018-12-21T00:13:59.467Z,27.00
2018-12-21T00:14:38.512Z,27.00
2018-12-21T00:15:16.696Z,27.10
2018-12-21T00:15:55.067Z,27.10
2018-12-21T00:16:32.898Z,27.10
2018-12-21T00:17:10.948Z,27.10
2018-12-21T00:17:48.940Z,27.10
2018-12-21T00:18:26.887Z,27.10
2018-12-21T00:19:04.736Z,27.10
2018-12-21T00:19:42.784Z,27.10
2018-12-21T00:20:20.791Z,27.10
2018-12-21T00:20:58.863Z,27.10
2018-12-21T00:21:38.569Z,27.00
2018-12-21T00:22:16.991Z,27.00
2018-12-21T00:22:56.016Z,27.00
2018-12-21T00:23:34.355Z,27.00
2018-12-21T00:24:12.755Z,27.00
2018-12-21T00:24:52.220Z,27.10
2018-12-21T00:25:30.875Z,27.10
2018-12-21T00:26:09.501Z,27.10
2018-12-21T00:26:48.074Z,27.10
2018-12-21T00:27:26.774Z,27.10
2018-12-21T00:28:05.015Z,27.10
2018-12-21T00:28:44.085Z,27.20
2018-12-21T00:29:22.384Z,27.20
2018-12-21T00:30:01.035Z,27.20
2018-12-21T00:30:37.640Z,27.20
2018-12-21T00:31:20.802Z,27.20
2018-12-21T00:32:03.067Z,27.20
2018-12-21T00:32:45.704Z,27.20
2018-12-21T00:33:28.139Z,27.30
2018-12-21T00:34:10.600Z,27.30
2018-12-21T00:34:53.160Z,27.30
2018-12-21T00:35:35.896Z,27.30
2018-12-21T00:36:18.715Z,27.20
2018-12-21T00:37:01.259Z,27.20
2018-12-21T00:37:43.637Z,27.30
2018-12-21T00:38:26.128Z,27.20
2018-12-21T00:39:09.203Z,27.30
2018-12-21T00:39:52.198Z,27.30
2018-12-21T00:40:35.203Z,27.30
2018-12-21T00:41:14.971Z,27.30
2018-12-21T00:41:52.735Z,27.30
2018-12-21T00:42:42.919Z,27.30
2018-12-21T00:43:31.962Z,27.30
2018-12-21T00:44:17.094Z,27.40
2018-12-21T00:44:59.411Z,27.40
2018-12-21T00:45:41.345Z,27.40
2018-12-21T00:46:34.233Z,27.40
2018-12-21T00:47:16.912Z,27.40
2018-12-21T00:47:55.351Z,27.40
2018-12-21T00:48:34.086Z,27.40
2018-12-21T00:49:13.729Z,27.40
2018-12-21T00:49:51.996Z,27.40
2018-12-21T00:50:30.684Z,27.40
2018-12-21T00:51:09.212Z,27.40
2018-12-21T00:51:47.863Z,27.40
2018-12-21T00:52:27.243Z,27.40
2018-12-21T00:53:05.812Z,27.40
2018-12-21T00:53:44.435Z,27.40
2018-12-21T00:54:22.883Z,27.40
2018-12-21T00:55:01.559Z,27.40
2018-12-21T00:55:40.412Z,27.40
2018-12-21T00:56:18.599Z,27.40
2018-12-21T00:56:57.712Z,27.50
2018-12-21T00:57:36.774Z,27.50
2018-12-21T00:58:14.758Z,27.50
2018-12-21T00:58:53.900Z,27.50
2018-12-21T00:59:32.271Z,27.50
2018-12-21T01:00:12.796Z,27.60
2018-12-21T01:00:51.365Z,27.60
2018-12-21T01:01:31.028Z,27.60
2018-12-21T01:02:09.663Z,27.50
2018-12-21T01:02:48.108Z,27.50
2018-12-21T01:03:26.837Z,27.50
2018-12-21T01:04:05.302Z,27.50
2018-12-21T01:04:43.880Z,27.50
2018-12-21T01:05:22.692Z,27.50
2018-12-21T01:06:01.195Z,27.50
2018-12-21T01:06:40.476Z,27.40
2018-12-21T01:07:19.016Z,27.50
2018-12-21T01:07:57.656Z,27.40
2018-12-21T01:08:36.199Z,27.40
2018-12-21T01:09:14.410Z,27.40
2018-12-21T01:09:56.465Z,27.40
2018-12-21T01:10:35.059Z,27.40
2018-12-21T01:11:13.265Z,27.40
2018-12-21T01:11:51.644Z,27.40
2018-12-21T01:12:30.108Z,27.40
2018-12-21T01:13:08.882Z,27.50
2018-12-21T01:13:47.658Z,27.40
2018-12-21T01:14:27.191Z,27.40
2018-12-21T01:15:05.803Z,27.40
2018-12-21T01:15:44.523Z,27.40
2018-12-21T01:16:23.671Z,27.40
2018-12-21T01:17:02.029Z,27.50
2018-12-21T01:17:40.628Z,27.40
2018-12-21T01:19:01.959Z,27.50
2018-12-21T01:19:40.363Z,27.50
2018-12-21T01:20:18.828Z,27.50
2018-12-21T01:20:57.244Z,27.40
2018-12-21T01:21:38.918Z,27.50
2018-12-21T01:22:16.638Z,27.50
2018-12-21T01:22:57.086Z,27.50
2018-12-21T01:23:35.687Z,27.50
2018-12-21T01:24:16.016Z,27.50
2018-12-21T01:24:54.544Z,27.50
2018-12-21T01:25:32.853Z,27.60
2018-12-21T01:26:11.785Z,27.60
2018-12-21T01:26:50.260Z,27.60
2018-12-21T01:27:28.861Z,27.60
2018-12-21T01:28:08.684Z,27.60
2018-12-21T01:28:47.736Z,27.60
2018-12-21T01:29:26.368Z,27.50
2018-12-21T01:30:05.728Z,27.60
2018-12-21T01:30:44.351Z,27.50
2018-12-21T01:31:22.528Z,27.60
2018-12-21T01:32:00.931Z,27.60
2018-12-21T01:32:39.657Z,27.60
2018-12-21T01:33:18.179Z,27.60
2018-12-21T01:34:01.248Z,27.60
2018-12-21T01:34:39.760Z,27.60
2018-12-21T01:35:18.967Z,27.60
2018-12-21T01:35:59.159Z,27.60
2018-12-21T01:36:37.809Z,27.60
2018-12-21T01:37:16.444Z,27.60
2018-12-21T01:37:54.971Z,27.60
2018-12-21T01:38:33.701Z,27.60
2018-12-21T01:39:11.823Z,27.60
2018-12-21T01:39:50.438Z,27.60
2018-12-21T01:40:29.132Z,27.60
2018-12-21T01:41:08.435Z,27.60
2018-12-21T01:41:47.180Z,27.60
2018-12-21T01:42:25.424Z,27.60
2018-12-21T01:43:04.178Z,27.70
2018-12-21T01:43:42.605Z,27.70
2018-12-21T01:44:21.828Z,27.70
2018-12-21T01:45:00.444Z,27.70
2018-12-21T01:45:39.164Z,27.70
2018-12-21T01:46:17.535Z,27.70
2018-12-21T01:46:56.933Z,27.70
2018-12-21T01:47:36.208Z,27.60
2018-12-21T01:48:14.845Z,27.60
2018-12-21T01:48:53.860Z,27.60
2018-12-21T01:49:33.295Z,27.60
2018-12-21T01:50:11.521Z,27.60
2018-12-21T01:50:50.592Z,27.60
2018-12-21T01:51:29.376Z,27.60
2018-12-21T01:52:08.239Z,27.60
2018-12-21T01:52:46.974Z,27.60
2018-12-21T01:53:25.543Z,27.60
2018-12-21T01:54:04.828Z,27.60
2018-12-21T01:54:44.646Z,27.60
2018-12-21T01:55:22.967Z,27.60
2018-12-21T01:56:01.153Z,27.60
2018-12-21T01:56:39.532Z,27.60
2018-12-21T01:57:18.152Z,27.60
2018-12-21T01:57:56.204Z,27.60
2018-12-21T01:58:35.467Z,27.60
2018-12-21T01:59:14.010Z,27.60
2018-12-21T01:59:53.043Z,27.60
2018-12-21T02:00:31.932Z,27.60
2018-12-21T02:01:10.502Z,27.60
2018-12-21T02:01:49.247Z,27.60
2018-12-21T02:02:28.026Z,27.60
2018-12-21T02:03:06.699Z,27.60
2018-12-21T02:03:45.967Z,27.60
2018-12-21T02:04:24.464Z,27.60
2018-12-21T02:05:02.956Z,27.60
2018-12-21T02:05:41.683Z,27.60
2018-12-21T02:06:21.392Z,27.60
2018-12-21T02:06:59.945Z,27.60
2018-12-21T02:07:38.596Z,27.60
2018-12-21T02:08:18.013Z,27.60
2018-12-21T02:08:56.625Z,27.60
2018-12-21T02:09:35.456Z,27.70
2018-12-21T02:10:14.609Z,27.70
2018-12-21T02:10:53.105Z,27.70
2018-12-21T02:11:31.701Z,27.70
2018-12-21T02:12:10.278Z,27.70
2018-12-21T02:12:48.832Z,27.70
2018-12-21T02:13:27.801Z,27.70
2018-12-21T02:14:06.184Z,27.70
2018-12-21T02:14:44.844Z,27.70
2018-12-21T02:15:24.313Z,27.70
2018-12-21T02:16:03.032Z,27.70
2018-12-21T02:16:41.400Z,27.70
2018-12-21T02:17:19.649Z,27.70
2018-12-21T02:17:58.790Z,27.70
2018-12-21T02:18:37.491Z,27.70
2018-12-21T02:19:15.896Z,27.70
2018-12-21T02:19:54.096Z,27.70
2018-12-21T02:20:32.971Z,27.70
2018-12-21T02:21:11.390Z,27.70
2018-12-21T02:21:55.890Z,27.70
2018-12-21T02:22:30.555Z,27.70
2018-12-21T02:23:09.347Z,27.70
2018-12-21T02:23:47.570Z,27.70
2018-12-21T02:24:26.271Z,27.70
2018-12-21T02:25:05.776Z,27.70
2018-12-21T02:25:44.424Z,27.70
2018-12-21T02:26:22.944Z,27.70
2018-12-21T02:27:01.425Z,27.70
2018-12-21T02:27:40.395Z,27.80
2018-12-21T02:28:19.237Z,27.80
2018-12-21T02:28:57.914Z,27.80
2018-12-21T02:29:37.036Z,27.80
2018-12-21T02:30:16.162Z,27.80
2018-12-21T02:30:55.536Z,27.80
2018-12-21T02:31:34.149Z,27.80
2018-12-21T02:32:12.746Z,27.80
2018-12-21T02:32:51.780Z,27.80
2018-12-21T02:33:30.476Z,27.80
2018-12-21T02:34:09.128Z,27.80
2018-12-21T02:34:47.997Z,27.80
2018-12-21T02:35:26.418Z,27.80
2018-12-21T02:36:10.723Z,27.80
2018-12-21T02:36:49.003Z,27.80
2018-12-21T02:37:27.680Z,27.80
2018-12-21T02:38:06.521Z,27.80
2018-12-21T02:38:45.340Z,27.80
2018-12-21T02:39:24.102Z,27.80
2018-12-21T02:40:02.680Z,27.90
2018-12-21T02:40:42.274Z,27.80
2018-12-21T02:41:20.967Z,27.80
2018-12-21T02:41:59.471Z,27.80
2018-12-21T02:42:37.773Z,27.80
2018-12-21T02:43:16.094Z,27.80
2018-12-21T02:43:54.802Z,27.80
2018-12-21T02:44:33.416Z,27.90
2018-12-21T02:45:12.477Z,27.80
2018-12-21T02:45:50.892Z,27.90
2018-12-21T02:46:29.026Z,27.80
2018-12-21T02:47:07.468Z,27.90
2018-12-21T02:47:46.635Z,27.90
2018-12-21T02:48:25.128Z,27.90
2018-12-21T02:49:03.403Z,27.90
2018-12-21T02:49:42.484Z,27.90
2018-12-21T02:50:21.683Z,27.90
2018-12-21T02:51:00.272Z,27.90
2018-12-21T02:51:39.036Z,27.90
2018-12-21T02:52:17.705Z,27.90
2018-12-21T02:52:56.024Z,27.90
2018-12-21T02:53:34.487Z,28.00
2018-12-21T02:54:12.956Z,27.90
2018-12-21T02:54:51.444Z,27.90
2018-12-21T02:55:29.859Z,27.90
2018-12-21T02:56:08.481Z,28.00
2018-12-21T02:56:47.320Z,27.90
2018-12-21T02:57:25.916Z,28.00
2018-12-21T02:58:04.397Z,28.00
2018-12-21T02:58:43.816Z,28.00
2018-12-21T02:59:23.013Z,28.00
2018-12-21T03:00:01.468Z,28.00
2018-12-21T03:00:39.635Z,28.00
2018-12-21T03:01:18.334Z,28.00
2018-12-21T03:01:56.836Z,28.00
2018-12-21T03:02:35.588Z,28.00
2018-12-21T03:03:14.243Z,28.00
2018-12-21T03:03:52.923Z,28.00
2018-12-21T03:04:31.366Z,28.00
2018-12-21T03:05:09.974Z,28.00
2018-12-21T03:05:48.812Z,28.00
2018-12-21T03:06:27.600Z,28.00
2018-12-21T03:07:08.496Z,28.00
2018-12-21T03:07:46.927Z,28.00
2018-12-21T03:08:25.584Z,28.00
2018-12-21T03:09:04.048Z,28.00
2018-12-21T03:09:44.051Z,28.00
2018-12-21T03:10:23.517Z,28.00
2018-12-21T03:11:01.999Z,28.00
2018-12-21T03:11:40.445Z,28.00
2018-12-21T03:12:19.000Z,28.10
2018-12-21T03:12:57.554Z,28.10
2018-12-21T03:13:36.128Z,28.10
2018-12-21T03:14:14.990Z,28.10
2018-12-21T03:14:53.482Z,28.10
2018-12-21T03:15:32.378Z,28.10
2018-12-21T03:16:11.082Z,28.10
2018-12-21T03:16:49.382Z,28.10
2018-12-21T03:17:28.212Z,28.10
2018-12-21T03:18:06.514Z,28.10
2018-12-21T03:18:45.107Z,28.10
2018-12-21T03:19:23.935Z,28.10
2018-12-21T03:20:02.261Z,28.10
2018-12-21T03:20:41.352Z,28.10
2018-12-21T03:21:20.006Z,28.10
2018-12-21T03:21:58.840Z,28.20
2018-12-21T03:22:37.308Z,28.20
2018-12-21T03:23:15.332Z,28.20
2018-12-21T03:23:53.962Z,28.20
2018-12-21T03:24:32.115Z,28.20
2018-12-21T03:25:10.505Z,28.20
2018-12-21T03:25:48.774Z,28.20
2018-12-21T03:26:27.487Z,28.20
2018-12-21T03:27:06.058Z,28.20
2018-12-21T03:27:44.871Z,28.20
2018-12-21T03:28:23.305Z,28.20
2018-12-21T03:29:02.504Z,28.20
2018-12-21T03:29:41.181Z,28.20
2018-12-21T03:30:19.561Z,28.30
2018-12-21T03:30:58.094Z,28.30
2018-12-21T03:31:36.832Z,28.30
2018-12-21T03:32:14.878Z,28.30
2018-12-21T03:32:53.570Z,28.30
2018-12-21T03:33:32.832Z,28.30
2018-12-21T03:34:11.459Z,28.30
2018-12-21T03:34:49.751Z,28.30
2018-12-21T03:35:28.137Z,28.30
2018-12-21T03:36:06.458Z,28.30
2018-12-21T03:36:45.052Z,28.30
2018-12-21T03:37:23.640Z,28.30
2018-12-21T03:38:02.049Z,28.30
2018-12-21T03:38:41.405Z,28.40
2018-12-21T03:39:21.203Z,28.40
2018-12-21T03:39:59.734Z,28.40
2018-12-21T03:40:38.860Z,28.40
2018-12-21T03:41:17.248Z,28.40
2018-12-21T03:41:55.860Z,28.40
2018-12-21T03:42:34.521Z,28.40
2018-12-21T03:43:13.090Z,28.40
2018-12-21T03:43:51.655Z,28.40
2018-12-21T03:44:30.358Z,28.40
2018-12-21T03:45:09.063Z,28.40
2018-12-21T03:45:47.492Z,28.40
2018-12-21T03:46:26.383Z,28.40
2018-12-21T03:47:04.612Z,28.40
2018-12-21T03:47:43.135Z,28.40
2018-12-21T03:48:21.922Z,28.40
2018-12-21T03:49:00.663Z,28.40
2018-12-21T03:49:39.863Z,28.50
2018-12-21T03:50:18.589Z,28.50
2018-12-21T03:50:57.121Z,28.50
2018-12-21T03:51:35.921Z,28.50
2018-12-21T03:52:23.989Z,28.50
2018-12-21T03:52:55.540Z,28.50
2018-12-21T03:53:34.281Z,28.50
2018-12-21T03:54:12.727Z,28.50
2018-12-21T03:54:51.145Z,28.50
2018-12-21T03:55:29.696Z,28.50
2018-12-21T03:56:09.290Z,28.50
2018-12-21T03:56:48.325Z,28.50
2018-12-21T03:57:26.555Z,28.50
2018-12-21T03:58:05.330Z,28.50
2018-12-21T03:58:43.551Z,28.50
2018-12-21T03:59:22.066Z,28.50
2018-12-21T04:00:00.980Z,28.50
2018-12-21T04:00:38.977Z,28.60
2018-12-21T04:01:17.154Z,28.60
2018-12-21T04:01:55.896Z,28.60
2018-12-21T04:02:34.485Z,28.60
2018-12-21T04:03:13.005Z,28.60
2018-12-21T04:03:51.337Z,28.60
2018-12-21T04:04:30.152Z,28.60
2018-12-21T04:05:08.684Z,28.60
2018-12-21T04:05:46.930Z,28.60
2018-12-21T04:06:26.431Z,28.60
2018-12-21T04:07:05.070Z,28.60
2018-12-21T04:07:43.330Z,28.60
2018-12-21T04:08:21.743Z,28.60
2018-12-21T04:09:00.504Z,28.60
2018-12-21T04:09:39.026Z,28.70
2018-12-21T04:10:18.912Z,28.60
2018-12-21T04:10:56.889Z,28.70
2018-12-21T04:11:34.964Z,28.70
2018-12-21T04:12:13.786Z,28.70
2018-12-21T04:12:53.308Z,28.70
2018-12-21T04:13:32.136Z,28.70
2018-12-21T04:14:10.793Z,28.70
2018-12-21T04:14:49.269Z,28.70
2018-12-21T04:15:27.760Z,28.70
2018-12-21T04:16:06.032Z,28.70
2018-12-21T04:16:44.671Z,28.70
2018-12-21T04:17:23.799Z,28.70
2018-12-21T04:18:02.153Z,28.70
2018-12-21T04:18:40.828Z,28.70
2018-12-21T04:19:19.044Z,28.70
2018-12-21T04:19:57.968Z,28.70
2018-12-21T04:20:36.561Z,28.80
2018-12-21T04:21:15.272Z,28.70
2018-12-21T04:21:53.902Z,28.80
2018-12-21T04:22:34.306Z,28.80
2018-12-21T04:23:12.777Z,28.80
2018-12-21T04:23:51.263Z,28.80
2018-12-21T04:24:29.795Z,28.80
2018-12-21T04:25:09.011Z,28.80
2018-12-21T04:25:47.792Z,28.80
2018-12-21T04:26:26.975Z,28.80
2018-12-21T04:27:05.677Z,28.80
2018-12-21T04:27:44.332Z,28.80
2018-12-21T04:28:22.694Z,28.80
2018-12-21T04:29:01.161Z,28.80
2018-12-21T04:29:39.961Z,28.80
2018-12-21T04:30:18.333Z,28.80
2018-12-21T04:30:56.591Z,28.90
2018-12-21T04:31:35.069Z,28.90
2018-12-21T04:35:18.344Z,28.90
2018-12-21T04:35:56.631Z,28.90
2018-12-21T04:36:34.804Z,28.90
2018-12-21T04:37:13.164Z,28.90
2018-12-21T04:37:51.448Z,28.90
2018-12-21T04:38:31.504Z,28.90
2018-12-21T04:39:10.921Z,28.90
2018-12-21T04:39:49.503Z,28.90
2018-12-21T04:40:28.152Z,29.00
2018-12-21T04:41:07.601Z,29.00
2018-12-21T04:41:46.893Z,28.90
2018-12-21T04:42:25.368Z,29.00
2018-12-21T04:43:03.789Z,29.00
2018-12-21T04:43:45.375Z,29.00
2018-12-21T04:44:23.861Z,29.00
2018-12-21T04:45:02.516Z,29.00
2018-12-21T04:46:23.959Z,29.00
2018-12-21T04:47:02.256Z,29.00
2018-12-21T04:47:40.712Z,29.00
2018-12-21T04:48:19.293Z,29.00
2018-12-21T04:48:57.795Z,29.00
2018-12-21T04:49:36.292Z,29.10
2018-12-21T04:50:15.396Z,29.10
2018-12-21T04:50:53.713Z,29.10
2018-12-21T04:51:32.495Z,29.10
2018-12-21T04:52:11.126Z,29.10
2018-12-21T04:52:49.662Z,29.10
2018-12-21T04:53:28.434Z,29.00
2018-12-21T04:54:07.149Z,29.10
2018-12-21T04:54:45.884Z,29.10
2018-12-21T04:55:26.335Z,29.10
2018-12-21T04:56:04.483Z,29.10
2018-12-21T04:56:43.156Z,29.20
2018-12-21T04:57:21.995Z,29.20
2018-12-21T04:58:00.649Z,29.20
2018-12-21T04:58:39.237Z,29.20
2018-12-21T04:59:17.649Z,29.20
2018-12-21T04:59:56.072Z,29.20
2018-12-21T05:00:34.662Z,29.20
2018-12-21T05:01:14.269Z,29.20
2018-12-21T05:01:52.599Z,29.20
2018-12-21T05:02:31.015Z,29.20
2018-12-21T05:03:10.557Z,29.20
2018-12-21T05:03:48.630Z,29.20
2018-12-21T05:04:27.268Z,29.20
2018-12-21T05:05:05.577Z,29.20
2018-12-21T05:05:44.103Z,29.20
2018-12-21T05:06:22.600Z,29.20
2018-12-21T05:07:01.203Z,29.20
2018-12-21T05:07:39.729Z,29.20
2018-12-21T05:08:18.607Z,29.20
2018-12-21T05:08:57.147Z,29.20
2018-12-21T05:09:35.119Z,29.20
2018-12-21T05:10:39.569Z,29.30
2018-12-21T05:11:18.031Z,29.30
2018-12-21T05:11:56.517Z,29.30
2018-12-21T05:12:34.839Z,29.30
2018-12-21T05:13:14.256Z,29.30
2018-12-21T05:13:52.794Z,29.30
2018-12-21T05:14:31.233Z,29.30
2018-12-21T05:15:10.185Z,29.30
2018-12-21T05:15:48.360Z,29.30
2018-12-21T05:16:26.925Z,29.40
2018-12-21T05:17:05.131Z,29.40
2018-12-21T05:17:43.792Z,29.40
2018-12-21T05:18:22.299Z,29.40
2018-12-21T05:19:00.812Z,29.40
2018-12-21T05:19:39.238Z,29.40
2018-12-21T05:20:18.069Z,29.40
2018-12-21T05:20:56.472Z,29.40
2018-12-21T05:21:35.129Z,29.30
2018-12-21T05:22:13.696Z,29.40
2018-12-21T05:22:52.698Z,29.40
2018-12-21T05:23:31.267Z,29.40
2018-12-21T05:24:09.433Z,29.40
2018-12-21T05:24:47.656Z,29.40
2018-12-21T05:25:26.159Z,29.40
2018-12-21T05:26:04.514Z,29.40
2018-12-21T05:26:43.921Z,29.40
2018-12-21T05:27:22.015Z,29.40
2018-12-21T05:28:00.565Z,29.40
2018-12-21T05:28:38.894Z,29.40
2018-12-21T05:29:18.969Z,29.40
2018-12-21T05:29:57.133Z,29.40
2018-12-21T05:30:36.299Z,29.40
2018-12-21T05:31:15.300Z,29.40
2018-12-21T05:31:54.129Z,29.40
2018-12-21T05:32:33.187Z,29.40
2018-12-21T05:33:12.410Z,29.40
2018-12-21T05:33:50.875Z,29.50
2018-12-21T05:34:29.648Z,29.50
2018-12-21T05:35:08.273Z,29.50
2018-12-21T05:35:47.385Z,29.50
2018-12-21T05:36:25.817Z,29.50
2018-12-21T05:37:04.668Z,29.50
2018-12-21T05:37:43.197Z,29.50
2018-12-21T05:38:21.727Z,29.50
2018-12-21T05:39:00.211Z,29.50
2018-12-21T05:39:38.243Z,29.50
2018-12-21T05:40:16.984Z,29.50
2018-12-21T05:40:55.391Z,29.50
2018-12-21T05:41:34.088Z,29.50
2018-12-21T05:42:12.532Z,29.50
2018-12-21T05:42:51.156Z,29.50
2018-12-21T05:43:29.624Z,29.50
2018-12-21T05:44:08.299Z,29.60
2018-12-21T05:44:46.720Z,29.60
2018-12-21T05:45:24.895Z,29.60
2018-12-21T05:46:03.286Z,29.60
2018-12-21T05:46:41.944Z,29.60
2018-12-21T05:47:20.568Z,29.60
2018-12-21T05:47:59.064Z,29.60
2018-12-21T05:48:37.508Z,29.60
2018-12-21T05:49:16.004Z,29.60
2018-12-21T05:49:55.235Z,29.60
2018-12-21T05:50:33.813Z,29.60
2018-12-21T05:51:12.295Z,29.60
2018-12-21T05:51:50.804Z,29.60
2018-12-21T05:52:29.239Z,29.60
2018-12-21T05:53:07.195Z,29.60
2018-12-21T05:53:45.812Z,29.60
2018-12-21T05:54:24.405Z,29.60
2018-12-21T05:55:03.164Z,29.60
2018-12-21T05:55:41.787Z,29.60
2018-12-21T05:56:20.371Z,29.70
2018-12-21T05:56:58.624Z,29.70
2018-12-21T05:57:37.004Z,29.70
2018-12-21T05:58:15.298Z,29.70
2018-12-21T05:58:53.712Z,29.70
2018-12-21T05:59:32.807Z,29.70
2018-12-21T06:00:13.328Z,29.70
2018-12-21T06:00:51.584Z,29.70
2018-12-21T06:01:30.443Z,29.70
2018-12-21T06:02:09.731Z,29.70
2018-12-21T06:02:48.143Z,29.70
2018-12-21T06:03:26.386Z,29.70
2018-12-21T06:04:05.108Z,29.70
2018-12-21T06:04:43.480Z,29.70
2018-12-21T06:05:22.276Z,29.70
2018-12-21T06:06:00.642Z,29.70
2018-12-21T06:06:39.064Z,29.70
2018-12-21T06:07:17.531Z,29.70
2018-12-21T06:07:56.463Z,29.70
2018-12-21T06:08:35.291Z,29.70
2018-12-21T06:09:14.933Z,29.70
2018-12-21T06:09:53.326Z,29.70
2018-12-21T06:10:31.640Z,29.70
2018-12-21T06:11:10.064Z,29.70
2018-12-21T06:11:48.804Z,29.70
2018-12-21T06:12:28.090Z,29.70
2018-12-21T06:13:06.603Z,29.70
2018-12-21T06:13:45.587Z,29.70
2018-12-21T06:14:25.864Z,29.70
2018-12-21T06:15:05.483Z,29.70
2018-12-21T06:15:44.134Z,29.70
2018-12-21T06:16:23.316Z,29.70
2018-12-21T06:17:02.620Z,29.70
2018-12-21T06:17:40.656Z,29.70
2018-12-21T06:18:20.095Z,29.70
2018-12-21T06:18:58.586Z,29.70
2018-12-21T06:19:37.210Z,29.70
2018-12-21T06:20:15.968Z,29.70
2018-12-21T06:20:54.024Z,29.80
2018-12-21T06:21:32.582Z,29.80
2018-12-21T06:22:10.573Z,29.80
2018-12-21T06:22:49.534Z,29.80
2018-12-21T06:23:28.105Z,29.80
2018-12-21T06:24:06.871Z,29.80
2018-12-21T06:24:45.431Z,29.80
2018-12-21T06:25:25.075Z,29.80
2018-12-21T06:26:04.232Z,29.80
2018-12-21T06:26:44.101Z,29.80
2018-12-21T06:27:22.640Z,29.80
2018-12-21T06:28:00.940Z,29.80
2018-12-21T06:28:39.004Z,29.80
2018-12-21T06:29:17.169Z,29.80
2018-12-21T06:29:55.437Z,29.80
2018-12-21T06:30:33.821Z,29.70
2018-12-21T06:31:13.411Z,29.70
2018-12-21T06:31:52.018Z,29.60
2018-12-21T06:32:30.643Z,29.50
2018-12-21T06:33:09.321Z,29.40
2018-12-21T06:33:47.534Z,29.30
2018-12-21T06:34:26.068Z,29.20
2018-12-21T06:35:04.679Z,29.10
2018-12-21T06:35:43.406Z,29.00
2018-12-21T06:36:22.659Z,28.90
2018-12-21T06:37:01.483Z,28.80
2018-12-21T06:37:39.925Z,28.80
2018-12-21T06:38:20.619Z,28.80
2018-12-21T06:38:59.124Z,28.90
2018-12-21T06:39:37.601Z,28.90
2018-12-21T06:40:16.120Z,29.10
2018-12-21T06:40:54.917Z,29.10
2018-12-21T06:41:33.289Z,29.20
2018-12-21T06:42:11.588Z,29.20
2018-12-21T06:42:50.757Z,29.20
2018-12-21T06:43:30.327Z,29.20
2018-12-21T06:44:08.267Z,29.30
2018-12-21T06:44:46.554Z,29.30
2018-12-21T06:45:25.207Z,29.30
2018-12-21T06:46:04.189Z,29.30
2018-12-21T06:46:42.715Z,29.30
2018-12-21T06:47:21.488Z,29.40
2018-12-21T06:47:59.888Z,29.40
2018-12-21T06:48:38.320Z,29.40
2018-12-21T06:49:16.868Z,29.40
2018-12-21T06:49:56.207Z,29.40
2018-12-21T06:50:35.097Z,29.40
2018-12-21T06:51:13.510Z,29.40
2018-12-21T06:51:52.038Z,29.40
2018-12-21T06:52:30.685Z,29.40
2018-12-21T06:53:17.703Z,29.40
2018-12-21T06:53:50.340Z,29.40
2018-12-21T06:54:28.803Z,29.40
2018-12-21T06:55:07.244Z,29.40
2018-12-21T06:55:45.839Z,29.50
2018-12-21T06:56:24.272Z,29.40
2018-12-21T06:57:02.938Z,29.50
2018-12-21T06:57:41.338Z,29.50
2018-12-21T06:58:20.049Z,29.50
2018-12-21T06:58:58.641Z,29.50
2018-12-21T06:59:37.301Z,29.50
2018-12-21T07:00:16.320Z,29.50
2018-12-21T07:00:54.770Z,29.50
2018-12-21T07:01:32.987Z,29.50
2018-12-21T07:02:11.027Z,29.50
2018-12-21T07:02:49.737Z,29.50
2018-12-21T07:03:28.499Z,29.50
2018-12-21T07:04:07.897Z,29.50
2018-12-21T07:04:47.159Z,29.50
2018-12-21T07:05:25.695Z,29.50
2018-12-21T07:06:08.913Z,29.50
2018-12-21T07:06:58.032Z,29.50
2018-12-21T07:07:41.540Z,29.60
2018-12-21T07:08:22.118Z,29.50
2018-12-21T07:09:01.756Z,29.50
2018-12-21T07:09:44.019Z,29.60
2018-12-21T07:10:27.499Z,29.60
2018-12-21T07:11:10.907Z,29.60
2018-12-21T07:11:52.984Z,29.60
2018-12-21T07:12:35.188Z,29.60
2018-12-21T07:13:17.466Z,29.60
2018-12-21T07:14:00.497Z,29.60
2018-12-21T07:14:45.616Z,29.60
2018-12-21T07:15:27.983Z,29.60
2018-12-21T07:16:10.828Z,29.60
2018-12-21T07:16:51.089Z,29.60
2018-12-21T07:17:34.683Z,29.60
2018-12-21T07:18:16.502Z,29.60
2018-12-21T07:18:57.749Z,29.60
2018-12-21T07:19:40.544Z,29.60
2018-12-21T07:20:21.696Z,29.60
2018-12-21T07:21:04.968Z,29.70
2018-12-21T07:21:46.425Z,29.70
2018-12-21T07:22:25.611Z,29.70
2018-12-21T07:23:10.284Z,29.70
2018-12-21T07:23:52.911Z,29.70
2018-12-21T07:24:33.009Z,29.70
2018-12-21T07:25:19.425Z,29.70
2018-12-21T07:26:03.669Z,29.70
2018-12-21T07:26:51.255Z,29.70
2018-12-21T07:27:34.777Z,29.70
2018-12-21T07:28:18.396Z,29.70
2018-12-21T07:28:59.252Z,29.70
2018-12-21T07:29:44.684Z,29.70
2018-12-21T07:30:24.900Z,29.80
2018-12-21T07:31:05.316Z,29.70
2018-12-21T07:31:53.531Z,29.80
2018-12-21T07:32:38.817Z,29.70
2018-12-21T07:33:27.573Z,29.80
2018-12-21T07:34:07.991Z,29.80
2018-12-21T07:34:50.337Z,29.80
2018-12-21T07:35:35.344Z,29.80
2018-12-21T07:39:22.089Z,29.80
2018-12-21T07:40:00.094Z,29.80
2018-12-21T07:40:38.087Z,29.80
2018-12-21T07:41:16.983Z,29.80
2018-12-21T07:41:54.917Z,29.80
2018-12-21T07:42:32.847Z,29.80
2018-12-21T07:43:10.951Z,29.80
2018-12-21T07:43:49.097Z,29.80
2018-12-21T07:44:27.121Z,29.80
2018-12-21T07:45:05.011Z,29.80
2018-12-21T07:45:44.008Z,29.90
2018-12-21T07:46:22.106Z,29.90
2018-12-21T07:47:00.098Z,29.90
2018-12-21T07:47:37.996Z,29.90
2018-12-21T07:48:15.980Z,29.90
2018-12-21T07:48:54.909Z,29.90
2018-12-21T07:49:33.286Z,29.90
2018-12-21T07:50:13.229Z,29.90
2018-12-21T07:50:51.498Z,29.90
2018-12-21T07:51:30.111Z,29.90
2018-12-21T07:52:08.625Z,29.90
2018-12-21T07:52:47.421Z,29.90
2018-12-21T07:53:25.640Z,29.90
2018-12-21T07:54:03.844Z,29.90
2018-12-21T07:54:42.906Z,29.90
2018-12-21T07:55:23.249Z,29.90
2018-12-21T07:56:01.517Z,29.90
2018-12-21T07:56:39.460Z,29.90
2018-12-21T07:57:17.429Z,29.90
2018-12-21T07:57:58.523Z,29.90
2018-12-21T07:58:37.115Z,29.90
2018-12-21T07:59:15.033Z,29.90
2018-12-21T07:59:53.524Z,29.90
2018-12-21T08:00:31.507Z,29.90
2018-12-21T08:01:10.915Z,29.90
2018-12-21T08:01:49.000Z,29.90
2018-12-21T08:02:27.012Z,29.90
2018-12-21T08:03:06.056Z,29.90
2018-12-21T08:03:44.601Z,29.90
2018-12-21T08:04:22.805Z,29.90
2018-12-21T08:05:00.974Z,29.90
2018-12-21T08:05:39.323Z,29.90
2018-12-21T08:06:18.050Z,29.90
2018-12-21T08:06:56.548Z,29.90
2018-12-21T08:07:35.022Z,29.90
2018-12-21T08:08:14.806Z,29.90
2018-12-21T08:08:54.962Z,29.90
2018-12-21T08:09:32.924Z,29.90
2018-12-21T08:10:18.267Z,29.90
2018-12-21T08:10:56.256Z,29.90
2018-12-21T08:11:34.579Z,29.90
2018-12-21T08:12:12.596Z,29.90
2018-12-21T08:12:50.520Z,29.90
2018-12-21T08:13:28.485Z,29.90
2018-12-21T08:14:06.622Z,29.90
2018-12-21T08:14:47.002Z,29.90
2018-12-21T08:15:25.954Z,29.90
2018-12-21T08:16:05.177Z,30.00
2018-12-21T08:16:43.497Z,30.00
2018-12-21T08:17:22.176Z,29.90
2018-12-21T08:18:01.209Z,30.00
2018-12-21T08:18:40.233Z,29.90
2018-12-21T08:19:18.779Z,29.90
2018-12-21T08:19:58.610Z,30.00
2018-12-21T08:20:37.393Z,30.00
2018-12-21T08:21:15.333Z,30.00
2018-12-21T08:21:54.064Z,30.00
2018-12-21T08:22:32.582Z,30.00
2018-12-21T08:23:10.944Z,30.00
2018-12-21T08:23:48.953Z,30.00
2018-12-21T08:24:27.041Z,30.00
2018-12-21T08:25:05.249Z,29.90
2018-12-21T08:25:43.472Z,30.00
2018-12-21T08:26:22.889Z,30.00
2018-12-21T08:27:01.319Z,30.00
2018-12-21T08:27:39.346Z,30.00
2018-12-21T08:28:17.199Z,30.00
2018-12-21T08:28:55.522Z,30.00
2018-12-21T08:29:34.512Z,30.00
2018-12-21T08:30:13.177Z,30.00
2018-12-21T08:30:51.647Z,30.00
2018-12-21T08:31:30.388Z,30.00